Time;durP1;ratioP1;P1;durP2;ratioP2;P2;SDS_P1;SDS_P2;PMS_P1;PMS_P2;Temp;Humidity;BMP_temperature;BMP_pressure;BME280_temperature;BME280_humidity;BME280_pressure;Samples;Min_cycle;Max_cycle;Signal;HPM_P1;HPM_P2
2023/01/22 00:02:04;;;;;;;9.82;6.60;;;;;;;1.08;87.18;98711.91;5048092;28;20040;-84
2023/01/22 00:04:30;;;;;;;10.75;6.13;;;;;;;0.99;87.62;98715.22;5051565;28;20039;-84
2023/01/22 00:06:56;;;;;;;10.38;6.03;;;;;;;1.08;87.79;98727.41;5045462;28;20033;-84
2023/01/22 00:09:21;;;;;;;10.18;6.13;;;;;;;1.17;88.02;98729.22;5037300;28;20086;-84
2023/01/22 00:11:48;;;;;;;8.48;5.75;;;;;;;1.16;87.76;98727.59;5048200;28;20037;-84
2023/01/22 00:14:14;;;;;;;8.20;5.43;;;;;;;1.27;87.35;98718.97;5050068;28;20103;-84
2023/01/22 00:16:40;;;;;;;10.32;5.30;;;;;;;1.36;87.45;98717.38;5041767;28;20112;-84
2023/01/22 00:19:07;;;;;;;9.25;6.07;;;;;;;1.39;87.22;98719.75;5052100;28;20090;-84
2023/01/22 00:21:33;;;;;;;9.50;5.35;;;;;;;1.39;86.81;98714.56;5050099;28;20105;-84
2023/01/22 00:24:00;;;;;;;7.72;5.22;;;;;;;1.37;86.56;98709.50;5050293;28;20106;-84
2023/01/22 00:26:26;;;;;;;8.55;5.22;;;;;;;1.39;86.62;98717.16;5051167;28;20116;-84
2023/01/22 00:28:53;;;;;;;8.73;5.55;;;;;;;1.38;86.42;98708.59;5052089;28;20085;-84
2023/01/22 00:31:19;;;;;;;8.93;5.47;;;;;;;1.40;86.22;98706.69;5046942;28;20108;-84
2023/01/22 00:33:46;;;;;;;9.15;5.88;;;;;;;1.46;86.31;98692.44;5046154;28;20028;-83
2023/01/22 00:36:21;;;;;;;8.77;5.50;;;;;;;1.46;86.25;98702.78;5042659;28;20037;-84
2023/01/22 00:38:48;;;;;;;8.63;6.07;;;;;;;1.45;86.17;98690.81;5047027;28;20037;-84
2023/01/22 00:41:15;;;;;;;7.95;5.22;;;;;;;1.45;86.31;98706.31;5045171;28;20175;-84
2023/01/22 00:43:41;;;;;;;9.68;5.63;;;;;;;1.43;86.28;98708.19;5050097;28;20084;-84
2023/01/22 00:46:10;;;;;;;10.82;6.20;;;;;;;1.50;86.30;98714.47;5051738;28;20582;-84
2023/01/22 00:48:37;;;;;;;9.43;5.50;;;;;;;1.49;86.22;98713.66;5051481;28;20457;-84
2023/01/22 00:51:03;;;;;;;8.25;5.40;;;;;;;1.49;85.93;98711.06;5051525;28;20055;-84
2023/01/22 00:53:29;;;;;;;8.70;5.75;;;;;;;1.50;85.68;98710.16;5051422;28;20425;-84
2023/01/22 00:56:00;;;;;;;8.43;5.40;;;;;;;1.46;85.74;98708.75;5051668;28;20071;-84
2023/01/22 00:58:26;;;;;;;7.00;4.75;;;;;;;1.46;85.52;98707.94;5044369;28;20087;-84
2023/01/22 01:00:53;;;;;;;9.40;5.57;;;;;;;1.49;85.36;98711.06;5041218;28;20062;-84
2023/01/22 01:03:25;;;;;;;8.40;5.57;;;;;;;1.55;85.67;98717.50;5046176;28;20412;-84
2023/01/22 01:05:59;;;;;;;7.78;5.00;;;;;;;1.41;85.92;98717.84;5041378;28;20033;-84
2023/01/22 01:08:26;;;;;;;8.73;5.15;;;;;;;1.39;85.85;98717.16;5044196;28;20032;-83
2023/01/22 01:11:00;;;;;;;8.85;5.32;;;;;;;1.39;86.20;98715.38;5048355;28;20041;-84
2023/01/22 01:13:28;;;;;;;8.35;5.22;;;;;;;1.33;86.16;98715.88;5050997;28;20405;-84
2023/01/22 01:16:14;;;;;;;9.63;5.70;;;;;;;1.32;86.52;98715.06;5050768;28;20037;-84
2023/01/22 01:18:40;;;;;;;8.60;5.30;;;;;;;1.29;86.89;98719.66;5049360;28;20044;-83
2023/01/22 01:21:07;;;;;;;11.15;5.93;;;;;;;1.34;87.17;98720.94;5050417;28;20488;-84
2023/01/22 01:23:33;;;;;;;9.40;5.53;;;;;;;1.39;86.83;98728.31;5049233;28;20040;-84
2023/01/22 01:25:59;;;;;;;9.43;5.53;;;;;;;1.42;86.99;98733.22;5050484;28;20424;-84
2023/01/22 01:28:27;;;;;;;8.73;4.97;;;;;;;1.47;86.77;98725.09;5050886;28;20036;-84
2023/01/22 01:30:52;;;;;;;8.27;5.35;;;;;;;1.50;86.57;98722.22;5048665;28;20041;-84
2023/01/22 01:33:18;;;;;;;9.80;5.72;;;;;;;1.52;86.41;98717.78;5046623;28;20103;-84
2023/01/22 01:35:43;;;;;;;8.27;4.95;;;;;;;1.55;86.24;98717.50;5041735;28;20117;-84
2023/01/22 01:38:09;;;;;;;7.57;4.88;;;;;;;1.50;86.03;98722.22;5047176;28;20128;-83
2023/01/22 01:40:41;;;;;;;8.75;4.85;;;;;;;1.47;86.04;98717.34;5042816;28;20072;-84
2023/01/22 01:43:14;;;;;;;7.90;5.22;;;;;;;1.37;86.38;98724.19;5044433;28;20033;-84
2023/01/22 01:45:40;;;;;;;9.18;5.25;;;;;;;1.34;86.77;98720.13;5050489;28;20660;-84
2023/01/22 01:48:34;;;;;;;8.90;5.10;;;;;;;1.27;87.00;98719.78;5050138;28;20056;-84
2023/01/22 01:51:14;;;;;;;8.43;4.82;;;;;;;1.16;87.41;98721.63;5035220;28;20028;-84
2023/01/22 01:53:43;;;;;;;8.82;4.90;;;;;;;1.21;87.71;98724.66;5044789;28;20065;-84
2023/01/22 01:56:21;;;;;;;6.75;5.13;;;;;;;1.10;87.88;98725.50;5050103;28;20064;-84
2023/01/22 01:58:55;;;;;;;7.78;4.97;;;;;;;1.14;87.94;98716.59;5043544;28;20064;-84
2023/01/22 02:01:22;;;;;;;8.55;4.75;;;;;;;1.29;88.19;98730.00;5041099;28;20035;-84
2023/01/22 02:03:49;;;;;;;8.65;5.20;;;;;;;1.27;87.79;98724.16;5049111;28;20035;-84
2023/01/22 02:06:17;;;;;;;7.85;5.00;;;;;;;1.21;87.91;98734.97;5050062;28;20476;-84
2023/01/22 02:08:47;;;;;;;10.07;5.30;;;;;;;1.27;87.81;98730.13;5050565;28;20064;-84
2023/01/22 02:11:15;;;;;;;8.35;5.07;;;;;;;1.33;87.74;98733.97;5049887;28;20407;-84
2023/01/22 02:14:05;;;;;;;7.00;4.55;;;;;;;1.32;87.53;98737.53;5048611;28;20037;-84
2023/01/22 02:16:31;;;;;;;7.38;4.57;;;;;;;1.38;87.29;98737.00;5035974;28;20021;-84
2023/01/22 02:18:56;;;;;;;8.10;4.97;;;;;;;1.43;87.01;98737.44;5044498;28;20551;-84
2023/01/22 02:21:43;;;;;;;7.70;4.90;;;;;;;1.49;87.19;98743.88;5028185;28;20033;-83
2023/01/22 02:24:15;;;;;;;6.82;4.25;;;;;;;1.52;86.79;98741.84;5050071;28;20032;-84
2023/01/22 02:26:44;;;;;;;8.57;4.75;;;;;;;1.61;86.80;98745.44;5046157;28;20057;-83
2023/01/22 02:29:12;;;;;;;7.45;4.43;;;;;;;1.69;86.53;98748.22;5045047;28;20087;-83
2023/01/22 02:31:40;;;;;;;7.95;4.90;;;;;;;1.72;86.11;98749.72;5050173;28;20064;-84
2023/01/22 02:34:07;;;;;;;7.68;4.85;;;;;;;1.66;85.76;98745.88;5053920;28;20037;-84
2023/01/22 02:36:37;;;;;;;7.80;4.68;;;;;;;1.68;86.11;98754.34;5053516;28;20428;-83
2023/01/22 02:39:03;;;;;;;6.97;4.43;;;;;;;1.60;85.67;98744.63;5053549;28;20491;-84
2023/01/22 02:41:29;;;;;;;8.40;4.82;;;;;;;1.56;86.20;98745.00;5053360;28;20072;-84
2023/01/22 02:43:55;;;;;;;8.80;5.30;;;;;;;1.63;86.16;98748.75;5054402;28;20044;-84
2023/01/22 02:46:20;;;;;;;6.63;3.90;;;;;;;1.62;86.13;98749.69;5045195;28;20025;-84
2023/01/22 02:48:46;;;;;;;6.25;4.38;;;;;;;1.60;86.21;98736.06;5052352;28;20069;-84
2023/01/22 02:51:12;;;;;;;5.45;4.05;;;;;;;1.56;86.09;98745.00;5038477;28;20127;-84
2023/01/22 02:53:37;;;;;;;5.25;4.07;;;;;;;1.62;86.02;98744.53;5053478;28;20524;-84
2023/01/22 02:56:09;;;;;;;7.25;4.60;;;;;;;1.61;86.25;98740.25;5049513;28;20037;-84
2023/01/22 02:58:35;;;;;;;6.30;4.32;;;;;;;1.62;85.98;98752.28;5050612;28;20085;-84
2023/01/22 03:01:19;;;;;;;7.05;4.28;;;;;;;1.58;86.24;98743.94;5053649;28;20120;-83
2023/01/22 03:03:50;;;;;;;6.82;4.22;;;;;;;1.58;86.42;98753.47;5053432;28;20029;-83
2023/01/22 03:06:20;;;;;;;7.90;4.72;;;;;;;1.62;86.13;98744.53;5050895;28;20040;-84
2023/01/22 03:08:52;;;;;;;5.97;4.43;;;;;;;1.66;86.17;98745.88;5032568;28;20041;-84
2023/01/22 03:11:18;;;;;;;7.15;4.32;;;;;;;1.64;86.14;98747.78;5053280;28;20044;-84
2023/01/22 03:21:58;;;;;;;7.68;4.65;;;;;;;1.72;85.58;98742.78;5035342;28;20368;-84
2023/01/22 03:24:24;;;;;;;9.60;4.95;;;;;;;1.71;85.40;98746.31;5047629;28;20120;-84
2023/01/22 03:26:49;;;;;;;5.78;4.10;;;;;;;1.74;85.70;98748.66;5053210;28;20040;-84
2023/01/22 03:29:15;;;;;;;8.40;4.60;;;;;;;1.76;85.40;98757.09;5053057;28;20029;-84
2023/01/22 03:31:40;;;;;;;7.15;4.38;;;;;;;1.75;85.48;98742.53;5019841;28;20041;-84
2023/01/22 03:34:06;;;;;;;6.05;4.05;;;;;;;1.76;85.68;98741.59;5047042;28;20064;-84
2023/01/22 03:36:31;;;;;;;8.88;4.65;;;;;;;1.76;85.78;98743.38;5053398;28;20198;-84
2023/01/22 03:38:57;;;;;;;6.15;4.10;;;;;;;1.76;85.67;98751.94;5051977;28;20036;-84
2023/01/22 03:41:22;;;;;;;7.28;4.45;;;;;;;1.77;85.71;98753.56;5040855;28;20033;-84
2023/01/22 03:43:48;;;;;;;6.30;4.95;;;;;;;1.76;85.65;98743.38;5047898;28;20033;-84
2023/01/22 03:46:17;;;;;;;7.35;4.60;;;;;;;1.77;85.48;98753.56;5052696;28;20113;-84
2023/01/22 03:48:44;;;;;;;7.53;4.78;;;;;;;1.76;85.62;98753.72;5038413;28;20396;-84
2023/01/22 03:51:13;;;;;;;6.38;4.45;;;;;;;1.81;85.38;98752.38;5048343;28;20028;-84
2023/01/22 03:53:40;;;;;;;8.18;4.97;;;;;;;1.82;85.20;98751.44;5041587;28;20073;-84
2023/01/22 03:56:10;;;;;;;6.57;4.65;;;;;;;1.83;85.20;98755.66;5052962;28;20509;-84
2023/01/22 03:58:37;;;;;;;7.20;5.00;;;;;;;1.84;85.22;98754.69;5053108;28;20167;-84
2023/01/22 04:01:07;;;;;;;7.80;5.03;;;;;;;1.82;85.27;98754.00;5048707;28;20051;-84
2023/01/22 04:03:34;;;;;;;6.80;4.63;;;;;;;1.85;85.22;98750.34;5047444;28;20389;-84
2023/01/22 04:05:59;;;;;;;8.02;4.68;;;;;;;1.87;85.09;98743.28;5049514;28;20626;-84
2023/01/22 04:08:31;;;;;;;7.53;4.70;;;;;;;1.85;84.77;98755.50;5052544;28;20036;-84
2023/01/22 04:10:58;;;;;;;6.75;4.43;;;;;;;1.86;85.09;98758.00;5052206;28;20473;-84
2023/01/22 04:13:26;;;;;;;7.38;4.50;;;;;;;1.85;85.42;98761.50;5052201;28;20033;-84
2023/01/22 04:15:52;;;;;;;8.40;4.95;;;;;;;1.85;85.42;98766.66;5043518;28;20036;-84
2023/01/22 04:18:18;;;;;;;7.22;4.50;;;;;;;1.79;85.43;98762.00;5034275;28;20041;-84
2023/01/22 04:20:44;;;;;;;7.40;4.53;;;;;;;1.82;85.33;98764.34;5050268;28;20496;-84
2023/01/22 04:23:10;;;;;;;7.70;4.78;;;;;;;1.79;85.48;98767.19;5052569;28;20040;-84
2023/01/22 04:25:36;;;;;;;6.88;4.72;;;;;;;1.86;85.53;98776.09;5044563;28;20033;-84
2023/01/22 04:28:03;;;;;;;7.78;4.20;;;;;;;1.86;85.18;98773.50;5051680;28;20037;-84
2023/01/22 04:30:29;;;;;;;7.47;4.65;;;;;;;1.85;85.48;98774.44;5049351;28;20037;-84
2023/01/22 04:32:56;;;;;;;7.47;4.70;;;;;;;1.80;85.59;98770.59;5051536;28;20029;-84
2023/01/22 04:35:22;;;;;;;6.72;4.60;;;;;;;1.72;85.29;98780.75;5034372;28;20110;-84
2023/01/22 04:37:48;;;;;;;7.90;4.85;;;;;;;1.74;85.48;98779.72;5033789;28;20028;-84
2023/01/22 04:40:14;;;;;;;8.00;4.40;;;;;;;1.74;85.31;98774.53;5040643;28;20411;-84
2023/01/22 04:42:39;;;;;;;7.63;4.88;;;;;;;1.75;85.20;98783.94;5042616;28;20652;-84
2023/01/22 04:45:06;;;;;;;5.47;4.18;;;;;;;1.68;85.44;98779.38;5051190;28;20037;-84
2023/01/22 04:47:31;;;;;;;6.05;4.57;;;;;;;1.71;85.53;98785.13;5045714;28;20041;-84
2023/01/22 04:49:57;;;;;;;6.05;4.28;;;;;;;1.73;85.44;98787.56;5046644;28;20033;-84
2023/01/22 04:52:22;;;;;;;6.97;4.55;;;;;;;1.70;85.47;98793.81;5042345;28;20060;-84
2023/01/22 04:54:50;;;;;;;7.20;4.35;;;;;;;1.74;85.72;98787.47;5047934;28;20048;-84
2023/01/22 04:57:16;;;;;;;7.03;4.05;;;;;;;1.69;85.41;98792.19;5034093;28;20036;-84
2023/01/22 04:59:42;;;;;;;6.97;4.20;;;;;;;1.64;85.71;98784.00;5049288;28;20092;-84
2023/01/22 05:02:08;;;;;;;6.25;4.57;;;;;;;1.68;85.66;98789.72;5048494;28;20056;-84
2023/01/22 05:04:33;;;;;;;6.75;4.43;;;;;;;1.68;85.76;98789.72;5047171;28;20040;-84
2023/01/22 05:06:59;;;;;;;6.70;4.07;;;;;;;1.57;85.81;98778.50;5050164;28;20040;-84
2023/01/22 05:09:25;;;;;;;7.43;4.05;;;;;;;1.49;86.05;98780.06;5042700;28;20032;-84
2023/01/22 05:11:51;;;;;;;5.65;4.07;;;;;;;1.47;86.19;98805.22;5044810;28;20060;-84
2023/01/22 05:14:16;;;;;;;6.43;4.10;;;;;;;1.57;86.33;98806.94;5049009;28;20037;-84
2023/01/22 05:16:42;;;;;;;5.60;4.05;;;;;;;1.57;86.38;98808.72;5050206;28;20167;-84
2023/01/22 05:19:07;;;;;;;6.32;3.83;;;;;;;1.52;86.33;98808.25;5051315;28;20025;-84
2023/01/22 05:21:33;;;;;;;6.68;4.03;;;;;;;1.57;86.16;98811.28;5050705;28;20036;-84
2023/01/22 05:23:58;;;;;;;6.10;3.80;;;;;;;1.58;86.22;98810.34;5049635;28;20476;-84
2023/01/22 05:26:24;;;;;;;6.22;4.32;;;;;;;1.55;86.25;98815.75;5051092;28;20364;-84
2023/01/22 05:28:49;;;;;;;5.78;3.92;;;;;;;1.57;86.31;98821.63;5042599;28;20029;-84
2023/01/22 05:31:15;;;;;;;7.05;4.05;;;;;;;1.57;86.20;98813.88;5046080;28;20059;-84
2023/01/22 05:33:41;;;;;;;5.63;4.18;;;;;;;1.59;86.17;98812.78;5046481;28;20042;-84
2023/01/22 05:36:09;;;;;;;6.40;4.25;;;;;;;1.57;86.14;98816.47;5030897;28;20034;-84
2023/01/22 05:38:34;;;;;;;6.45;4.10;;;;;;;1.54;85.98;98816.69;5048048;28;20439;-84
2023/01/22 05:41:00;;;;;;;5.20;3.70;;;;;;;1.40;85.90;98822.19;5048057;28;20044;-84
2023/01/22 05:43:25;;;;;;;6.03;3.92;;;;;;;1.16;86.40;98820.63;5028466;28;20047;-84
2023/01/22 05:45:50;;;;;;;7.03;3.80;;;;;;;1.13;87.02;98823.44;5049443;28;20052;-84
2023/01/22 05:48:16;;;;;;;6.50;3.80;;;;;;;1.16;87.73;98820.63;5044522;28;20040;-84
2023/01/22 05:50:42;;;;;;;5.22;3.95;;;;;;;1.12;87.95;98814.03;5050461;28;20554;-84
2023/01/22 05:53:07;;;;;;;6.30;4.20;;;;;;;1.30;87.56;98828.06;5050962;28;20112;-84
2023/01/22 05:55:34;;;;;;;6.13;4.20;;;;;;;1.36;87.24;98831.94;5050301;28;20045;-84
2023/01/22 05:58:01;;;;;;;5.55;4.00;;;;;;;1.38;87.17;98830.06;5050975;28;20041;-84
2023/01/22 06:00:27;;;;;;;5.85;3.90;;;;;;;1.39;86.85;98836.06;5043875;28;20120;-84
2023/01/22 06:02:57;;;;;;;6.32;4.40;;;;;;;1.39;86.74;98836.06;5044749;28;20053;-84
2023/01/22 06:05:23;;;;;;;8.52;4.60;;;;;;;1.38;86.11;98831.81;5046908;28;20147;-84
2023/01/22 06:07:49;;;;;;;6.25;4.25;;;;;;;1.40;86.21;98837.69;5032902;28;20571;-84
2023/01/22 06:10:15;;;;;;;7.50;4.53;;;;;;;1.28;86.23;98829.16;5046281;28;20037;-84
2023/01/22 06:12:41;;;;;;;9.15;4.50;;;;;;;1.37;86.23;98837.91;5040765;28;20041;-84
2023/01/22 06:15:24;;;;;;;8.10;5.32;;;;;;;1.38;86.47;98839.56;5037754;28;20032;-84
2023/01/22 06:17:50;;;;;;;4.65;3.72;;;;;;;1.26;86.58;98837.03;5050255;28;20055;-84
2023/01/22 06:20:15;;;;;;;5.40;3.97;;;;;;;1.20;86.84;98844.44;5042408;28;20087;-84
2023/01/22 06:22:41;;;;;;;4.82;3.47;;;;;;;1.08;87.22;98843.66;5051068;28;20060;-84
2023/01/22 06:25:08;;;;;;;5.63;3.60;;;;;;;1.04;87.66;98850.00;5041951;28;20069;-84
2023/01/22 06:27:33;;;;;;;6.07;3.63;;;;;;;1.04;87.45;98842.25;5050650;28;20162;-84
2023/01/22 06:30:00;;;;;;;4.97;3.72;;;;;;;1.07;87.70;98847.97;5047889;28;20068;-84
2023/01/22 06:32:26;;;;;;;6.45;3.97;;;;;;;1.04;87.38;98842.25;5037635;28;20037;-84
2023/01/22 06:34:52;;;;;;;5.13;3.97;;;;;;;1.03;87.60;98854.34;5050674;28;20043;-84
2023/01/22 06:37:17;;;;;;;8.60;4.50;;;;;;;1.01;87.79;98852.81;5043502;28;20044;-84
2023/01/22 06:39:43;;;;;;;6.05;4.22;;;;;;;0.98;88.04;98848.72;5050720;28;20702;-84
2023/01/22 06:42:08;;;;;;;5.88;3.80;;;;;;;1.05;87.92;98861.97;5046875;28;20111;-84
2023/01/22 06:44:34;;;;;;;5.60;3.72;;;;;;;1.03;87.88;98840.63;5050447;28;20047;-84
2023/01/22 06:46:59;;;;;;;5.80;4.00;;;;;;;1.19;87.79;98855.72;5038083;28;20069;-84
2023/01/22 06:49:24;;;;;;;6.35;4.10;;;;;;;1.26;87.69;98862.88;5037902;28;20037;-84
2023/01/22 06:51:50;;;;;;;4.72;3.72;;;;;;;1.31;87.37;98862.50;5050438;28;20113;-84
2023/01/22 06:54:15;;;;;;;5.82;3.58;;;;;;;1.41;87.03;98865.16;5050417;28;20136;-84
2023/01/22 06:56:41;;;;;;;5.97;4.22;;;;;;;1.38;86.86;98870.56;5048113;28;20496;-84
2023/01/22 06:59:06;;;;;;;5.55;3.83;;;;;;;1.44;86.78;98873.53;5030739;28;20398;-84
2023/01/22 07:01:32;;;;;;;5.93;4.03;;;;;;;1.46;86.46;98866.44;5031410;28;20037;-84
2023/01/22 07:03:57;;;;;;;4.70;3.78;;;;;;;1.41;86.14;98870.34;5041895;28;20036;-84
2023/01/22 07:06:23;;;;;;;6.25;3.67;;;;;;;1.43;86.33;98874.44;5046604;28;20053;-84
2023/01/22 07:08:48;;;;;;;4.70;3.70;;;;;;;1.39;86.35;98880.00;5036817;28;20071;-84
2023/01/22 07:11:15;;;;;;;5.18;3.75;;;;;;;1.35;86.33;98876.81;5049699;28;20047;-84
2023/01/22 07:13:41;;;;;;;6.43;4.00;;;;;;;1.43;86.51;98886.53;5050230;28;20503;-83
2023/01/22 07:16:07;;;;;;;5.55;3.65;;;;;;;1.48;86.40;98892.16;5052800;28;20485;-84
2023/01/22 07:18:32;;;;;;;5.43;4.03;;;;;;;1.45;86.54;98890.66;5053735;28;20040;-83
2023/01/22 07:21:04;;;;;;;7.82;4.25;;;;;;;1.50;86.00;98895.44;5053450;28;20025;-83
2023/01/22 07:23:30;;;;;;;6.30;4.28;;;;;;;1.54;86.07;98902.03;5046424;28;20048;-84
2023/01/22 07:25:57;;;;;;;5.35;3.80;;;;;;;1.53;85.85;98902.97;5045653;28;20516;-82
2023/01/22 07:28:23;;;;;;;6.20;3.88;;;;;;;1.55;85.86;98898.47;5053987;28;20037;-84
2023/01/22 07:30:48;;;;;;;6.20;4.25;;;;;;;1.46;86.19;98887.13;5042383;28;20032;-84
2023/01/22 07:33:16;;;;;;;5.47;4.03;;;;;;;1.59;85.89;98911.06;5049932;28;20040;-84
2023/01/22 07:35:42;;;;;;;6.18;4.43;;;;;;;1.55;86.01;98896.72;5053905;28;20595;-84
2023/01/22 07:38:08;;;;;;;5.65;4.47;;;;;;;1.57;85.85;98912.13;5053374;28;20094;-84
2023/01/22 07:40:34;;;;;;;6.15;4.32;;;;;;;1.59;86.02;98910.22;5053071;28;20118;-84
2023/01/22 07:43:05;;;;;;;6.80;4.07;;;;;;;1.53;85.88;98913.31;5044996;28;20040;-84
2023/01/22 07:45:30;;;;;;;6.25;4.35;;;;;;;1.52;86.09;98911.69;5053095;28;20033;-84
2023/01/22 07:47:58;;;;;;;6.25;4.38;;;;;;;1.48;85.80;98912.84;5053295;28;20044;-84
2023/01/22 07:50:28;;;;;;;5.65;4.35;;;;;;;1.44;85.98;98917.47;5052868;28;20127;-84
2023/01/22 07:52:54;;;;;;;8.02;3.88;;;;;;;1.49;86.23;98917.06;5036275;28;20033;-84
2023/01/22 07:55:20;;;;;;;4.82;3.90;;;;;;;1.54;86.30;98917.53;5033739;28;20052;-84
2023/01/22 07:57:45;;;;;;;5.78;3.78;;;;;;;1.56;86.00;98925.97;5053313;28;20055;-84
2023/01/22 08:00:14;;;;;;;5.53;4.28;;;;;;;1.63;85.82;98927.16;5053146;28;20036;-84
2023/01/22 08:02:41;;;;;;;5.70;3.95;;;;;;;1.64;85.84;98926.22;5052681;28;20576;-83
2023/01/22 08:05:11;;;;;;;6.78;3.78;;;;;;;1.68;85.70;98930.19;5047278;28;20025;-83
2023/01/22 08:07:36;;;;;;;5.78;4.35;;;;;;;1.73;85.57;98932.41;5018425;28;20047;-83
2023/01/22 08:10:04;;;;;;;5.38;3.75;;;;;;;1.76;85.62;98932.97;5051672;28;20037;-84
2023/01/22 08:12:29;;;;;;;5.95;3.85;;;;;;;1.75;85.48;98931.34;5052211;28;20062;-84
2023/01/22 08:14:55;;;;;;;6.70;3.97;;;;;;;1.87;85.87;98937.28;5052452;28;20029;-84
2023/01/22 08:17:20;;;;;;;7.78;4.18;;;;;;;1.87;85.33;98947.66;5044307;28;20364;-84
2023/01/22 08:19:45;;;;;;;6.15;4.05;;;;;;;1.88;85.59;98942.34;5052074;28;20096;-84
2023/01/22 08:22:11;;;;;;;6.22;3.90;;;;;;;1.93;85.89;98946.34;5051060;28;20128;-84
2023/01/22 08:24:36;;;;;;;5.40;3.80;;;;;;;2.01;85.77;98947.34;5042852;28;20033;-83
2023/01/22 08:27:02;;;;;;;5.22;3.75;;;;;;;2.02;85.32;98953.34;5041811;28;20029;-84
2023/01/22 08:29:28;;;;;;;6.00;3.92;;;;;;;2.04;85.08;98951.44;5048786;28;20040;-83
2023/01/22 08:31:53;;;;;;;7.47;4.80;;;;;;;2.07;85.22;98962.38;5048943;28;20037;-83
2023/01/22 08:34:20;;;;;;;6.80;4.25;;;;;;;2.11;85.17;98960.38;5047135;28;20036;-83
2023/01/22 08:36:46;;;;;;;5.97;4.00;;;;;;;2.14;85.31;98962.69;5045571;28;20025;-83
2023/01/22 08:39:12;;;;;;;6.53;4.78;;;;;;;2.14;84.92;98957.50;5037668;28;20074;-83
2023/01/22 08:41:39;;;;;;;8.30;5.10;;;;;;;2.26;84.80;98981.56;5046964;28;20083;-83
2023/01/22 08:44:06;;;;;;;6.80;4.82;;;;;;;2.31;84.80;98974.25;5050908;28;20033;-83
2023/01/22 08:46:33;;;;;;;7.53;4.93;;;;;;;2.34;84.42;98971.41;5050767;28;20058;-83
2023/01/22 08:48:59;;;;;;;7.63;5.22;;;;;;;2.36;84.40;98982.47;5049480;28;20032;-83
2023/01/22 08:51:25;;;;;;;6.97;5.43;;;;;;;2.24;84.42;98973.94;5047674;28;20053;-83
2023/01/22 08:53:50;;;;;;;8.10;5.72;;;;;;;2.21;84.01;98979.34;5041644;28;20048;-83
2023/01/22 08:56:16;;;;;;;8.90;5.60;;;;;;;2.14;83.72;98984.22;5040999;28;20125;-83
2023/01/22 08:58:41;;;;;;;8.20;6.18;;;;;;;1.99;83.76;98979.47;5044943;28;20120;-83
2023/01/22 09:01:15;;;;;;;8.60;5.72;;;;;;;2.11;84.60;98981.06;5038672;28;20108;-84
2023/01/22 09:03:41;;;;;;;9.10;5.45;;;;;;;2.09;84.49;98970.81;5037941;28;20029;-83
2023/01/22 09:06:06;;;;;;;8.05;5.80;;;;;;;1.99;84.02;98969.13;5051345;28;20062;-84
2023/01/22 09:08:32;;;;;;;8.07;5.57;;;;;;;1.96;84.43;98982.28;5045278;28;20036;-82
2023/01/22 09:10:57;;;;;;;8.38;5.80;;;;;;;1.87;85.13;98983.88;5050625;28;20083;-83
2023/01/22 09:13:23;;;;;;;8.75;5.47;;;;;;;1.95;85.53;98994.41;5048937;28;20072;-83
2023/01/22 09:15:48;;;;;;;7.93;5.25;;;;;;;2.09;85.32;98991.53;5037413;28;20087;-83
2023/01/22 09:18:13;;;;;;;8.35;5.65;;;;;;;1.98;84.56;98998.50;5038119;28;20048;-84
2023/01/22 09:20:39;;;;;;;8.35;5.35;;;;;;;2.09;85.09;98988.13;5049059;28;20043;-83
2023/01/22 09:23:06;;;;;;;8.18;5.60;;;;;;;2.30;85.05;98994.16;5032960;28;20035;-83
2023/01/22 09:25:31;;;;;;;8.05;5.47;;;;;;;2.47;84.48;98997.13;5049643;28;20037;-83
2023/01/22 09:28:03;;;;;;;7.78;5.20;;;;;;;2.49;83.43;99000.41;5047281;28;20064;-83
2023/01/22 09:30:29;;;;;;;6.22;5.40;;;;;;;2.61;83.11;98996.81;5038541;28;20036;-83
2023/01/22 09:32:55;;;;;;;9.68;6.30;;;;;;;2.76;82.76;98999.88;5047458;28;20428;-83
2023/01/22 09:35:20;;;;;;;9.20;5.32;;;;;;;2.80;82.42;99009.88;5045330;28;20064;-83
2023/01/22 09:37:46;;;;;;;8.68;5.20;;;;;;;2.75;82.20;99014.59;5035163;28;20033;-83
2023/01/22 09:40:40;;;;;;;8.23;5.55;;;;;;;2.84;82.59;99013.84;5046416;28;20053;-83
2023/01/22 09:43:24;;;;;;;6.88;5.05;;;;;;;2.97;82.34;99018.00;5044006;28;20104;-83
2023/01/22 09:45:55;;;;;;;10.20;6.00;;;;;;;2.77;81.14;99022.28;5034874;28;20481;-83
2023/01/22 09:48:22;;;;;;;;;;;;;;;2.68;80.95;99024.66;5046718;28;20083;-83
2023/01/22 09:50:49;;;;;;;7.70;5.32;;;;;;;2.43;81.15;99027.63;5024589;28;19963;-83
2023/01/22 09:53:19;;;;;;;7.35;5.13;;;;;;;2.53;82.32;99027.69;5049804;28;20029;-83
2023/01/22 09:55:50;;;;;;;7.85;5.13;;;;;;;2.51;82.27;99032.16;5049832;28;20037;-83
2023/01/22 09:58:22;;;;;;;7.43;5.30;;;;;;;2.55;82.84;99025.81;5045795;28;20045;-83
2023/01/22 10:01:03;;;;;;;10.13;5.60;;;;;;;2.48;82.48;99022.06;5048623;28;20139;-83
2023/01/22 10:03:41;;;;;;;8.90;5.97;;;;;;;2.50;82.32;99025.34;5047061;28;20647;-83
2023/01/22 10:06:17;;;;;;;9.38;6.38;;;;;;;2.51;82.29;99037.34;5045264;28;20378;-83
2023/01/22 10:09:11;;;;;;;8.55;6.60;;;;;;;2.61;82.99;99033.06;5040538;28;20076;-83
2023/01/22 10:11:38;;;;;;;8.30;5.88;;;;;;;2.82;84.02;99031.31;5047107;28;20584;-83
2023/01/22 10:14:11;;;;;;;9.13;5.65;;;;;;;2.85;83.25;99038.81;5050212;28;20068;-84
2023/01/22 10:16:37;;;;;;;9.82;6.30;;;;;;;2.87;82.43;99029.13;5032301;28;20044;-83
2023/01/22 10:19:25;;;;;;;8.60;6.18;;;;;;;2.86;81.92;99029.25;5048713;28;20040;-83
2023/01/22 10:22:01;;;;;;;8.73;5.28;;;;;;;2.76;81.11;99029.22;5045429;28;20033;-83
2023/01/22 10:24:28;;;;;;;7.95;5.35;;;;;;;2.91;81.60;99021.94;5045150;28;20060;-83
2023/01/22 10:26:57;;;;;;;7.32;5.47;;;;;;;2.83;80.49;99022.56;5048603;28;20046;-83
2023/01/22 10:29:33;;;;;;;8.07;5.13;;;;;;;2.95;82.01;99031.91;5048091;28;20033;-83
2023/01/22 10:32:15;;;;;;;7.82;5.53;;;;;;;2.95;81.14;99015.56;5049487;28;20044;-83
2023/01/22 10:34:41;;;;;;;8.25;5.22;;;;;;;2.88;80.05;99035.97;5045652;28;20053;-83
2023/01/22 10:37:17;;;;;;;7.65;5.50;;;;;;;2.84;79.61;99034.56;5047560;28;20404;-83
2023/01/22 10:39:46;;;;;;;9.63;5.95;;;;;;;2.81;80.17;99034.00;5048660;28;20040;-83
2023/01/22 10:42:17;;;;;;;7.15;5.22;;;;;;;2.66;81.01;99039.50;5047593;28;20033;-83
2023/01/22 10:44:43;;;;;;;9.63;5.37;;;;;;;2.70;81.72;99047.88;5049580;28;20039;-84
2023/01/22 10:47:19;;;;;;;6.53;5.05;;;;;;;2.72;80.79;99040.78;5050033;28;20275;-84
2023/01/22 10:49:46;;;;;;;6.30;4.70;;;;;;;2.69;81.17;99044.41;5047346;28;20037;-83
2023/01/22 10:52:23;;;;;;;9.82;5.57;;;;;;;2.71;81.81;99044.31;5053428;28;20512;-83
2023/01/22 10:54:57;;;;;;;8.13;4.70;;;;;;;2.63;80.73;99041.53;5045396;28;20057;-83
2023/01/22 10:57:30;;;;;;;7.57;5.65;;;;;;;2.57;82.05;99047.19;5050357;28;20543;-83
2023/01/22 11:00:22;;;;;;;7.82;4.93;;;;;;;2.68;82.22;99049.75;5035397;28;20112;-83
2023/01/22 11:02:49;;;;;;;9.18;5.50;;;;;;;2.58;80.88;99044.50;5044746;28;20029;-83
2023/01/22 11:05:23;;;;;;;7.32;5.25;;;;;;;2.54;80.62;99047.47;5050195;28;20044;-83
2023/01/22 11:08:14;;;;;;;7.78;5.13;;;;;;;2.57;81.10;99052.38;5051949;28;20049;-83
2023/01/22 11:10:53;;;;;;;8.75;5.50;;;;;;;2.75;81.80;99056.06;5032589;28;20056;-83
2023/01/22 11:13:20;;;;;;;5.82;4.65;;;;;;;2.86;81.81;99053.41;5051454;28;20112;-83
2023/01/22 11:16:21;;;;;;;8.13;5.57;;;;;;;3.00;81.72;99051.44;5049230;28;20060;-83
2023/01/22 11:18:59;;;;;;;7.15;5.03;;;;;;;3.06;80.82;99058.69;5042633;28;20043;-83
2023/01/22 11:21:32;;;;;;;7.97;5.22;;;;;;;3.11;80.49;99056.53;5049933;28;20033;-83
2023/01/22 11:24:05;;;;;;;7.32;5.03;;;;;;;3.12;80.77;99053.84;5052560;28;20108;-83
2023/01/22 11:26:42;;;;;;;6.95;4.88;;;;;;;3.19;80.27;99043.78;5048276;28;20021;-83
2023/01/22 11:29:37;;;;;;;8.80;5.25;;;;;;;3.13;79.90;99046.88;5033669;28;20029;-83
2023/01/22 11:32:57;;;;;;;10.05;5.10;;;;;;;3.07;79.25;99042.22;5051101;28;20040;-83
2023/01/22 11:35:39;;;;;;;7.33;5.43;;;;;;;3.24;81.29;99044.22;5049908;28;20040;-83
2023/01/22 11:38:22;;;;;;;7.38;5.25;;;;;;;3.36;80.41;99040.56;5050709;28;20037;-83
2023/01/22 11:41:25;;;;;;;7.22;5.03;;;;;;;3.45;80.22;99037.19;5049981;28;20032;-83
2023/01/22 11:44:40;;;;;;;6.47;5.05;;;;;;;3.48;79.61;99029.16;5051668;28;20509;-83
2023/01/22 11:47:35;;;;;;;7.07;4.85;;;;;;;3.53;78.91;99020.94;5046511;28;20040;-83
2023/01/22 11:50:09;;;;;;;5.88;4.38;;;;;;;3.52;78.16;99026.28;5049946;28;20055;-83
2023/01/22 11:52:49;;;;;;;7.47;4.65;;;;;;;3.52;78.54;99018.50;5050488;28;20033;-83
2023/01/22 11:55:15;;;;;;;7.65;5.40;;;;;;;3.62;78.74;99024.53;5048651;28;20041;-83
2023/01/22 11:58:36;;;;;;;8.60;5.72;;;;;;;3.39;77.65;99008.34;5051350;28;20518;-83
2023/01/22 12:01:39;;;;;;;;;;;;;;;3.40;78.55;99026.38;5049720;28;20102;-83